sensor_id;sensor_type;location;lat;lon;timestamp;P1;durP1;ratioP1;P2;durP2;ratioP2
7669;SDS011;3877;42.562;27.636;2023-05-17T00:00:18;21.57;;;8.57;;
7669;SDS011;3877;42.562;27.636;2023-05-17T00:02:45;26.17;;;9.63;;
7669;SDS011;3877;42.562;27.636;2023-05-17T00:05:12;17.93;;;8.90;;
7669;SDS011;3877;42.562;27.636;2023-05-17T00:07:38;21.20;;;9.10;;
7669;SDS011;3877;42.562;27.636;2023-05-17T00:10:06;23.60;;;9.67;;
7669;SDS011;3877;42.562;27.636;2023-05-17T00:12:33;24.57;;;9.77;;
7669;SDS011;3877;42.562;27.636;2023-05-17T00:15:01;19.77;;;9.13;;
7669;SDS011;3877;42.562;27.636;2023-05-17T00:17:28;21.67;;;8.97;;
7669;SDS011;3877;42.562;27.636;2023-05-17T00:19:55;21.07;;;8.73;;
7669;SDS011;3877;42.562;27.636;2023-05-17T00:22:21;26.80;;;9.23;;
7669;SDS011;3877;42.562;27.636;2023-05-17T00:24:48;26.97;;;10.23;;
7669;SDS011;3877;42.562;27.636;2023-05-17T00:27:15;37.13;;;15.77;;
7669;SDS011;3877;42.562;27.636;2023-05-17T00:29:42;18.87;;;8.83;;
7669;SDS011;3877;42.562;27.636;2023-05-17T00:32:11;24.47;;;9.43;;
7669;SDS011;3877;42.562;27.636;2023-05-17T00:34:37;24.90;;;8.83;;
7669;SDS011;3877;42.562;27.636;2023-05-17T00:37:04;15.73;;;8.67;;
7669;SDS011;3877;42.562;27.636;2023-05-17T00:39:31;24.47;;;8.80;;
7669;SDS011;3877;42.562;27.636;2023-05-17T00:41:58;35.67;;;9.93;;
7669;SDS011;3877;42.562;27.636;2023-05-17T00:44:26;23.27;;;8.10;;
7669;SDS011;3877;42.562;27.636;2023-05-17T00:46:53;21.27;;;9.10;;
7669;SDS011;3877;42.562;27.636;2023-05-17T00:49:21;23.43;;;9.67;;
7669;SDS011;3877;42.562;27.636;2023-05-17T00:51:47;19.67;;;10.13;;
7669;SDS011;3877;42.562;27.636;2023-05-17T00:54:14;25.10;;;9.83;;
7669;SDS011;3877;42.562;27.636;2023-05-17T00:56:41;17.67;;;8.40;;
7669;SDS011;3877;42.562;27.636;2023-05-17T00:59:08;25.30;;;9.17;;
7669;SDS011;3877;42.562;27.636;2023-05-17T01:01:35;25.13;;;9.33;;
7669;SDS011;3877;42.562;27.636;2023-05-17T01:04:02;19.03;;;9.07;;
7669;SDS011;3877;42.562;27.636;2023-05-17T01:06:31;22.03;;;10.00;;
7669;SDS011;3877;42.562;27.636;2023-05-17T01:08:58;28.93;;;9.83;;
7669;SDS011;3877;42.562;27.636;2023-05-17T01:11:28;21.20;;;10.13;;
7669;SDS011;3877;42.562;27.636;2023-05-17T01:13:58;22.77;;;10.13;;
7669;SDS011;3877;42.562;27.636;2023-05-17T01:16:29;24.27;;;9.80;;
7669;SDS011;3877;42.562;27.636;2023-05-17T01:18:57;30.87;;;10.70;;
7669;SDS011;3877;42.562;27.636;2023-05-17T01:21:29;31.27;;;10.57;;
7669;SDS011;3877;42.562;27.636;2023-05-17T01:24:15;32.63;;;10.90;;
7669;SDS011;3877;42.562;27.636;2023-05-17T01:26:49;37.67;;;10.90;;
7669;SDS011;3877;42.562;27.636;2023-05-17T01:29:16;25.67;;;10.30;;
7669;SDS011;3877;42.562;27.636;2023-05-17T01:31:45;25.33;;;10.73;;
7669;SDS011;3877;42.562;27.636;2023-05-17T01:34:15;21.50;;;9.73;;
7669;SDS011;3877;42.562;27.636;2023-05-17T01:36:49;19.13;;;10.07;;
7669;SDS011;3877;42.562;27.636;2023-05-17T01:39:16;22.07;;;9.60;;
7669;SDS011;3877;42.562;27.636;2023-05-17T01:41:43;23.90;;;10.33;;
7669;SDS011;3877;42.562;27.636;2023-05-17T01:44:17;28.40;;;10.90;;
7669;SDS011;3877;42.562;27.636;2023-05-17T01:46:47;22.57;;;9.87;;
7669;SDS011;3877;42.562;27.636;2023-05-17T01:49:17;18.70;;;9.27;;
7669;SDS011;3877;42.562;27.636;2023-05-17T01:51:47;21.77;;;9.97;;
7669;SDS011;3877;42.562;27.636;2023-05-17T01:54:14;21.37;;;9.67;;
7669;SDS011;3877;42.562;27.636;2023-05-17T01:56:46;25.17;;;11.07;;
7669;SDS011;3877;42.562;27.636;2023-05-17T01:59:16;24.90;;;10.77;;
7669;SDS011;3877;42.562;27.636;2023-05-17T02:01:45;24.13;;;10.53;;
7669;SDS011;3877;42.562;27.636;2023-05-17T02:04:13;25.83;;;10.57;;
7669;SDS011;3877;42.562;27.636;2023-05-17T02:06:39;31.27;;;11.53;;
7669;SDS011;3877;42.562;27.636;2023-05-17T02:09:06;31.80;;;10.80;;
7669;SDS011;3877;42.562;27.636;2023-05-17T02:11:34;27.33;;;10.10;;
7669;SDS011;3877;42.562;27.636;2023-05-17T02:14:01;25.67;;;10.57;;
7669;SDS011;3877;42.562;27.636;2023-05-17T02:16:29;23.80;;;10.80;;
7669;SDS011;3877;42.562;27.636;2023-05-17T02:18:56;29.43;;;10.97;;
7669;SDS011;3877;42.562;27.636;2023-05-17T02:21:23;30.20;;;10.77;;
7669;SDS011;3877;42.562;27.636;2023-05-17T02:23:50;28.27;;;11.10;;
7669;SDS011;3877;42.562;27.636;2023-05-17T02:26:17;28.10;;;11.50;;
7669;SDS011;3877;42.562;27.636;2023-05-17T02:28:43;32.37;;;11.77;;
7669;SDS011;3877;42.562;27.636;2023-05-17T02:31:10;25.67;;;10.30;;
7669;SDS011;3877;42.562;27.636;2023-05-17T02:33:39;26.73;;;11.17;;
7669;SDS011;3877;42.562;27.636;2023-05-17T02:36:06;25.03;;;10.07;;
7669;SDS011;3877;42.562;27.636;2023-05-17T02:38:33;29.73;;;11.60;;
7669;SDS011;3877;42.562;27.636;2023-05-17T02:41:00;30.00;;;10.63;;
7669;SDS011;3877;42.562;27.636;2023-05-17T02:43:27;29.03;;;10.90;;
7669;SDS011;3877;42.562;27.636;2023-05-17T02:45:54;26.70;;;10.37;;
7669;SDS011;3877;42.562;27.636;2023-05-17T02:48:21;24.70;;;9.80;;
7669;SDS011;3877;42.562;27.636;2023-05-17T02:50:49;20.50;;;8.90;;
7669;SDS011;3877;42.562;27.636;2023-05-17T02:53:15;24.50;;;9.63;;
7669;SDS011;3877;42.562;27.636;2023-05-17T02:55:42;29.87;;;10.67;;
7669;SDS011;3877;42.562;27.636;2023-05-17T02:58:09;22.57;;;9.17;;
7669;SDS011;3877;42.562;27.636;2023-05-17T03:00:36;28.17;;;10.20;;
7669;SDS011;3877;42.562;27.636;2023-05-17T03:03:02;22.77;;;9.97;;
7669;SDS011;3877;42.562;27.636;2023-05-17T03:05:30;25.47;;;10.03;;
7669;SDS011;3877;42.562;27.636;2023-05-17T03:07:58;25.53;;;10.00;;
7669;SDS011;3877;42.562;27.636;2023-05-17T03:10:24;36.37;;;11.60;;
7669;SDS011;3877;42.562;27.636;2023-05-17T03:12:51;23.63;;;9.43;;
7669;SDS011;3877;42.562;27.636;2023-05-17T03:15:18;21.50;;;9.63;;
7669;SDS011;3877;42.562;27.636;2023-05-17T03:17:45;17.50;;;9.10;;
7669;SDS011;3877;42.562;27.636;2023-05-17T03:20:11;23.30;;;9.40;;
7669;SDS011;3877;42.562;27.636;2023-05-17T03:22:38;24.17;;;10.90;;
7669;SDS011;3877;42.562;27.636;2023-05-17T03:25:07;20.07;;;9.83;;
7669;SDS011;3877;42.562;27.636;2023-05-17T03:27:34;26.37;;;9.83;;
7669;SDS011;3877;42.562;27.636;2023-05-17T03:30:01;26.07;;;10.93;;
7669;SDS011;3877;42.562;27.636;2023-05-17T03:32:27;21.23;;;10.13;;
7669;SDS011;3877;42.562;27.636;2023-05-17T03:34:54;23.63;;;9.27;;
7669;SDS011;3877;42.562;27.636;2023-05-17T03:37:21;19.67;;;9.20;;
7669;SDS011;3877;42.562;27.636;2023-05-17T03:39:48;24.90;;;10.13;;
7669;SDS011;3877;42.562;27.636;2023-05-17T03:42:16;25.07;;;9.50;;
7669;SDS011;3877;42.562;27.636;2023-05-17T03:44:43;25.80;;;10.00;;
7669;SDS011;3877;42.562;27.636;2023-05-17T03:47:12;20.80;;;10.20;;
7669;SDS011;3877;42.562;27.636;2023-05-17T03:49:38;21.73;;;9.33;;
7669;SDS011;3877;42.562;27.636;2023-05-17T03:52:05;21.97;;;10.47;;
7669;SDS011;3877;42.562;27.636;2023-05-17T03:54:32;21.13;;;9.53;;
7669;SDS011;3877;42.562;27.636;2023-05-17T03:56:59;22.20;;;9.90;;
7669;SDS011;3877;42.562;27.636;2023-05-17T03:59:29;22.90;;;11.23;;
7669;SDS011;3877;42.562;27.636;2023-05-17T04:01:55;21.63;;;10.17;;
7669;SDS011;3877;42.562;27.636;2023-05-17T04:04:22;25.23;;;11.03;;
7669;SDS011;3877;42.562;27.636;2023-05-17T04:06:49;29.40;;;10.50;;
7669;SDS011;3877;42.562;27.636;2023-05-17T04:09:16;23.00;;;10.23;;
7669;SDS011;3877;42.562;27.636;2023-05-17T04:11:44;23.57;;;10.60;;
7669;SDS011;3877;42.562;27.636;2023-05-17T04:14:10;23.57;;;11.17;;
7669;SDS011;3877;42.562;27.636;2023-05-17T04:16:38;46.93;;;29.60;;
7669;SDS011;3877;42.562;27.636;2023-05-17T04:19:05;30.47;;;10.40;;
7669;SDS011;3877;42.562;27.636;2023-05-17T04:21:32;25.10;;;10.60;;
7669;SDS011;3877;42.562;27.636;2023-05-17T04:23:59;22.63;;;10.03;;
7669;SDS011;3877;42.562;27.636;2023-05-17T04:26:26;23.87;;;11.03;;
7669;SDS011;3877;42.562;27.636;2023-05-17T04:28:53;33.27;;;11.77;;
7669;SDS011;3877;42.562;27.636;2023-05-17T04:31:20;22.83;;;10.57;;
7669;SDS011;3877;42.562;27.636;2023-05-17T04:33:48;22.90;;;10.57;;
7669;SDS011;3877;42.562;27.636;2023-05-17T04:36:14;45.47;;;12.17;;
7669;SDS011;3877;42.562;27.636;2023-05-17T04:38:41;28.17;;;10.70;;
7669;SDS011;3877;42.562;27.636;2023-05-17T04:41:09;24.83;;;10.07;;
7669;SDS011;3877;42.562;27.636;2023-05-17T04:43:36;40.23;;;11.53;;
7669;SDS011;3877;42.562;27.636;2023-05-17T04:46:04;29.17;;;11.17;;
7669;SDS011;3877;42.562;27.636;2023-05-17T04:48:31;29.43;;;11.60;;
7669;SDS011;3877;42.562;27.636;2023-05-17T04:51:01;26.07;;;11.43;;
7669;SDS011;3877;42.562;27.636;2023-05-17T04:53:28;26.50;;;11.57;;
7669;SDS011;3877;42.562;27.636;2023-05-17T04:55:55;30.23;;;11.00;;
7669;SDS011;3877;42.562;27.636;2023-05-17T04:58:22;17.87;;;9.87;;
7669;SDS011;3877;42.562;27.636;2023-05-17T05:00:49;21.73;;;9.60;;
7669;SDS011;3877;42.562;27.636;2023-05-17T05:03:16;21.43;;;9.27;;
7669;SDS011;3877;42.562;27.636;2023-05-17T05:05:43;21.90;;;8.67;;
7669;SDS011;3877;42.562;27.636;2023-05-17T05:08:12;17.13;;;9.40;;
7669;SDS011;3877;42.562;27.636;2023-05-17T05:10:39;18.33;;;9.07;;
7669;SDS011;3877;42.562;27.636;2023-05-17T05:13:05;23.97;;;8.90;;
7669;SDS011;3877;42.562;27.636;2023-05-17T05:15:32;15.30;;;9.20;;
7669;SDS011;3877;42.562;27.636;2023-05-17T05:17:59;18.67;;;9.77;;
7669;SDS011;3877;42.562;27.636;2023-05-17T05:20:26;18.17;;;9.00;;
7669;SDS011;3877;42.562;27.636;2023-05-17T05:22:52;21.17;;;10.17;;
7669;SDS011;3877;42.562;27.636;2023-05-17T05:25:20;18.80;;;9.87;;
7669;SDS011;3877;42.562;27.636;2023-05-17T05:27:47;18.83;;;9.10;;
7669;SDS011;3877;42.562;27.636;2023-05-17T05:30:14;16.87;;;8.17;;
7669;SDS011;3877;42.562;27.636;2023-05-17T05:32:46;20.67;;;8.97;;
7669;SDS011;3877;42.562;27.636;2023-05-17T05:35:13;18.03;;;9.00;;
7669;SDS011;3877;42.562;27.636;2023-05-17T05:37:45;24.80;;;8.70;;
7669;SDS011;3877;42.562;27.636;2023-05-17T05:40:12;25.47;;;9.43;;
7669;SDS011;3877;42.562;27.636;2023-05-17T05:42:41;20.50;;;8.50;;
7669;SDS011;3877;42.562;27.636;2023-05-17T05:45:08;17.93;;;7.80;;
7669;SDS011;3877;42.562;27.636;2023-05-17T05:47:35;20.50;;;7.90;;
7669;SDS011;3877;42.562;27.636;2023-05-17T05:50:02;20.07;;;8.17;;
7669;SDS011;3877;42.562;27.636;2023-05-17T05:52:29;19.70;;;7.37;;
7669;SDS011;3877;42.562;27.636;2023-05-17T05:54:56;20.17;;;7.47;;
7669;SDS011;3877;42.562;27.636;2023-05-17T05:57:23;25.17;;;7.70;;
7669;SDS011;3877;42.562;27.636;2023-05-17T05:59:51;18.23;;;6.90;;
7669;SDS011;3877;42.562;27.636;2023-05-17T06:02:18;18.87;;;7.00;;
7669;SDS011;3877;42.562;27.636;2023-05-17T06:04:45;14.87;;;6.37;;
7669;SDS011;3877;42.562;27.636;2023-05-17T06:07:12;23.10;;;7.53;;
7669;SDS011;3877;42.562;27.636;2023-05-17T06:09:39;14.30;;;6.37;;
7669;SDS011;3877;42.562;27.636;2023-05-17T06:12:06;20.60;;;7.10;;
7669;SDS011;3877;42.562;27.636;2023-05-17T06:14:32;15.10;;;6.03;;
7669;SDS011;3877;42.562;27.636;2023-05-17T06:17:03;21.20;;;6.83;;
7669;SDS011;3877;42.562;27.636;2023-05-17T06:19:30;19.90;;;7.00;;
7669;SDS011;3877;42.562;27.636;2023-05-17T06:21:56;14.40;;;6.30;;
7669;SDS011;3877;42.562;27.636;2023-05-17T06:24:23;16.50;;;7.13;;
7669;SDS011;3877;42.562;27.636;2023-05-17T06:26:50;22.20;;;8.10;;
7669;SDS011;3877;42.562;27.636;2023-05-17T06:29:17;16.07;;;6.83;;
7669;SDS011;3877;42.562;27.636;2023-05-17T06:31:44;15.40;;;6.33;;
7669;SDS011;3877;42.562;27.636;2023-05-17T06:34:12;13.73;;;5.70;;
7669;SDS011;3877;42.562;27.636;2023-05-17T06:36:38;17.53;;;6.00;;
7669;SDS011;3877;42.562;27.636;2023-05-17T06:39:05;16.17;;;4.43;;
7669;SDS011;3877;42.562;27.636;2023-05-17T06:41:32;19.63;;;6.97;;
7669;SDS011;3877;42.562;27.636;2023-05-17T06:43:59;12.57;;;4.90;;
7669;SDS011;3877;42.562;27.636;2023-05-17T06:46:27;22.33;;;6.00;;
7669;SDS011;3877;42.562;27.636;2023-05-17T06:48:54;19.77;;;5.60;;
7669;SDS011;3877;42.562;27.636;2023-05-17T06:51:24;15.30;;;4.93;;
7669;SDS011;3877;42.562;27.636;2023-05-17T06:53:50;20.23;;;5.07;;
7669;SDS011;3877;42.562;27.636;2023-05-17T06:56:17;14.27;;;5.20;;
7669;SDS011;3877;42.562;27.636;2023-05-17T06:58:44;19.20;;;5.57;;
7669;SDS011;3877;42.562;27.636;2023-05-17T07:01:11;17.53;;;5.63;;
7669;SDS011;3877;42.562;27.636;2023-05-17T07:03:38;19.47;;;5.43;;
7669;SDS011;3877;42.562;27.636;2023-05-17T07:06:05;18.57;;;5.63;;
7669;SDS011;3877;42.562;27.636;2023-05-17T07:08:33;10.40;;;4.70;;
7669;SDS011;3877;42.562;27.636;2023-05-17T07:11:00;15.47;;;5.10;;
7669;SDS011;3877;42.562;27.636;2023-05-17T07:13:27;19.60;;;5.53;;
7669;SDS011;3877;42.562;27.636;2023-05-17T07:15:54;17.90;;;5.67;;
7669;SDS011;3877;42.562;27.636;2023-05-17T07:18:20;14.70;;;5.10;;
7669;SDS011;3877;42.562;27.636;2023-05-17T07:20:47;16.90;;;5.47;;
7669;SDS011;3877;42.562;27.636;2023-05-17T07:23:14;18.80;;;5.90;;
7669;SDS011;3877;42.562;27.636;2023-05-17T07:25:42;17.53;;;5.83;;
7669;SDS011;3877;42.562;27.636;2023-05-17T07:28:09;19.60;;;5.97;;
7669;SDS011;3877;42.562;27.636;2023-05-17T07:30:36;15.90;;;4.77;;
7669;SDS011;3877;42.562;27.636;2023-05-17T07:33:02;15.87;;;5.63;;
7669;SDS011;3877;42.562;27.636;2023-05-17T07:35:29;18.67;;;5.20;;
7669;SDS011;3877;42.562;27.636;2023-05-17T07:37:56;12.03;;;5.10;;
7669;SDS011;3877;42.562;27.636;2023-05-17T07:40:23;17.17;;;5.83;;
7669;SDS011;3877;42.562;27.636;2023-05-17T07:42:51;16.07;;;4.90;;
7669;SDS011;3877;42.562;27.636;2023-05-17T07:45:18;18.33;;;5.10;;
7669;SDS011;3877;42.562;27.636;2023-05-17T07:47:45;16.93;;;5.20;;
7669;SDS011;3877;42.562;27.636;2023-05-17T07:50:11;14.77;;;5.63;;
7669;SDS011;3877;42.562;27.636;2023-05-17T07:52:38;12.60;;;5.27;;
7669;SDS011;3877;42.562;27.636;2023-05-17T07:55:06;17.30;;;6.03;;
7669;SDS011;3877;42.562;27.636;2023-05-17T07:57:33;20.03;;;6.20;;
7669;SDS011;3877;42.562;27.636;2023-05-17T08:00:01;19.93;;;6.10;;
7669;SDS011;3877;42.562;27.636;2023-05-17T08:02:30;12.23;;;5.17;;
7669;SDS011;3877;42.562;27.636;2023-05-17T08:04:57;16.13;;;5.20;;
7669;SDS011;3877;42.562;27.636;2023-05-17T08:07:24;19.17;;;5.70;;
7669;SDS011;3877;42.562;27.636;2023-05-17T08:09:50;19.40;;;5.40;;
7669;SDS011;3877;42.562;27.636;2023-05-17T08:12:17;22.00;;;6.53;;
7669;SDS011;3877;42.562;27.636;2023-05-17T08:14:44;22.20;;;6.20;;
7669;SDS011;3877;42.562;27.636;2023-05-17T08:17:12;18.43;;;5.80;;
7669;SDS011;3877;42.562;27.636;2023-05-17T08:19:41;22.17;;;5.43;;
7669;SDS011;3877;42.562;27.636;2023-05-17T08:22:08;21.37;;;5.40;;
7669;SDS011;3877;42.562;27.636;2023-05-17T08:24:35;21.03;;;6.77;;
7669;SDS011;3877;42.562;27.636;2023-05-17T08:27:02;18.73;;;5.97;;
7669;SDS011;3877;42.562;27.636;2023-05-17T08:29:29;15.43;;;5.50;;
7669;SDS011;3877;42.562;27.636;2023-05-17T08:31:56;19.13;;;5.82;;
7669;SDS011;3877;42.562;27.636;2023-05-17T08:34:24;13.60;;;5.63;;
7669;SDS011;3877;42.562;27.636;2023-05-17T08:36:51;18.13;;;5.27;;
7669;SDS011;3877;42.562;27.636;2023-05-17T08:39:18;16.03;;;5.50;;
7669;SDS011;3877;42.562;27.636;2023-05-17T08:41:45;23.47;;;5.60;;
7669;SDS011;3877;42.562;27.636;2023-05-17T08:44:12;21.02;;;6.25;;
7669;SDS011;3877;42.562;27.636;2023-05-17T08:46:41;15.77;;;6.00;;
7669;SDS011;3877;42.562;27.636;2023-05-17T08:49:08;13.17;;;4.90;;
7669;SDS011;3877;42.562;27.636;2023-05-17T08:51:39;18.48;;;5.72;;
7669;SDS011;3877;42.562;27.636;2023-05-17T08:54:07;18.75;;;5.75;;
7669;SDS011;3877;42.562;27.636;2023-05-17T08:56:34;17.20;;;5.53;;
7669;SDS011;3877;42.562;27.636;2023-05-17T08:59:04;14.47;;;4.60;;
7669;SDS011;3877;42.562;27.636;2023-05-17T09:01:32;10.65;;;5.15;;
7669;SDS011;3877;42.562;27.636;2023-05-17T09:03:59;17.15;;;5.20;;
7669;SDS011;3877;42.562;27.636;2023-05-17T09:06:25;11.30;;;4.88;;
7669;SDS011;3877;42.562;27.636;2023-05-17T09:08:54;16.95;;;4.90;;
7669;SDS011;3877;42.562;27.636;2023-05-17T09:11:26;18.77;;;5.93;;
7669;SDS011;3877;42.562;27.636;2023-05-17T09:13:53;27.03;;;5.80;;
7669;SDS011;3877;42.562;27.636;2023-05-17T09:16:23;14.27;;;4.70;;
7669;SDS011;3877;42.562;27.636;2023-05-17T09:18:53;13.60;;;4.73;;
7669;SDS011;3877;42.562;27.636;2023-05-17T09:21:21;15.77;;;4.63;;
7669;SDS011;3877;42.562;27.636;2023-05-17T09:23:48;15.30;;;5.15;;
7669;SDS011;3877;42.562;27.636;2023-05-17T09:26:16;17.67;;;5.07;;
7669;SDS011;3877;42.562;27.636;2023-05-17T09:28:43;12.67;;;4.87;;
7669;SDS011;3877;42.562;27.636;2023-05-17T09:31:14;17.10;;;4.97;;
7669;SDS011;3877;42.562;27.636;2023-05-17T09:33:43;21.07;;;5.20;;
7669;SDS011;3877;42.562;27.636;2023-05-17T09:36:17;17.20;;;5.57;;
7669;SDS011;3877;42.562;27.636;2023-05-17T09:38:50;13.80;;;5.03;;
7669;SDS011;3877;42.562;27.636;2023-05-17T09:41:19;12.63;;;4.85;;
7669;SDS011;3877;42.562;27.636;2023-05-17T09:43:46;12.70;;;4.67;;
7669;SDS011;3877;42.562;27.636;2023-05-17T09:46:13;12.33;;;5.00;;
7669;SDS011;3877;42.562;27.636;2023-05-17T09:48:41;16.30;;;4.27;;
7669;SDS011;3877;42.562;27.636;2023-05-17T09:51:09;19.92;;;4.97;;
7669;SDS011;3877;42.562;27.636;2023-05-17T09:53:36;16.70;;;5.00;;
7669;SDS011;3877;42.562;27.636;2023-05-17T09:56:06;13.95;;;4.85;;
7669;SDS011;3877;42.562;27.636;2023-05-17T09:58:35;13.07;;;5.03;;
7669;SDS011;3877;42.562;27.636;2023-05-17T10:01:03;15.07;;;5.67;;
7669;SDS011;3877;42.562;27.636;2023-05-17T10:03:30;17.10;;;6.57;;
7669;SDS011;3877;42.562;27.636;2023-05-17T10:06:00;14.38;;;6.10;;
7669;SDS011;3877;42.562;27.636;2023-05-17T10:08:28;14.93;;;5.10;;
7669;SDS011;3877;42.562;27.636;2023-05-17T10:10:57;16.58;;;5.82;;
7669;SDS011;3877;42.562;27.636;2023-05-17T10:13:26;10.90;;;5.00;;
7669;SDS011;3877;42.562;27.636;2023-05-17T10:15:57;14.68;;;5.25;;
7669;SDS011;3877;42.562;27.636;2023-05-17T10:18:26;15.70;;;5.55;;
7669;SDS011;3877;42.562;27.636;2023-05-17T10:20:54;16.60;;;5.63;;
7669;SDS011;3877;42.562;27.636;2023-05-17T10:23:21;16.33;;;4.85;;
7669;SDS011;3877;42.562;27.636;2023-05-17T10:25:48;16.98;;;5.13;;
7669;SDS011;3877;42.562;27.636;2023-05-17T10:28:16;13.93;;;5.00;;
7669;SDS011;3877;42.562;27.636;2023-05-17T10:30:43;13.80;;;5.00;;
7669;SDS011;3877;42.562;27.636;2023-05-17T10:33:11;14.77;;;4.90;;
7669;SDS011;3877;42.562;27.636;2023-05-17T10:35:38;14.52;;;4.53;;
7669;SDS011;3877;42.562;27.636;2023-05-17T10:38:06;11.63;;;4.82;;
7669;SDS011;3877;42.562;27.636;2023-05-17T10:40:32;15.70;;;4.80;;
7669;SDS011;3877;42.562;27.636;2023-05-17T10:43:00;18.48;;;5.32;;
7669;SDS011;3877;42.562;27.636;2023-05-17T10:45:28;15.60;;;5.00;;
7669;SDS011;3877;42.562;27.636;2023-05-17T10:47:56;11.23;;;4.90;;
7669;SDS011;3877;42.562;27.636;2023-05-17T10:50:25;18.35;;;5.05;;
7669;SDS011;3877;42.562;27.636;2023-05-17T10:52:52;14.83;;;4.90;;
7669;SDS011;3877;42.562;27.636;2023-05-17T10:55:20;11.57;;;5.00;;
7669;SDS011;3877;42.562;27.636;2023-05-17T11:00:41;16.73;;;5.57;;
7669;SDS011;3877;42.562;27.636;2023-05-17T11:03:12;12.83;;;5.10;;
7669;SDS011;3877;42.562;27.636;2023-05-17T11:05:41;14.77;;;5.60;;
7669;SDS011;3877;42.562;27.636;2023-05-17T11:08:13;13.97;;;5.50;;
7669;SDS011;3877;42.562;27.636;2023-05-17T11:13:26;13.27;;;5.38;;
7669;SDS011;3877;42.562;27.636;2023-05-17T11:16:01;13.93;;;4.50;;
7669;SDS011;3877;42.562;27.636;2023-05-17T11:18:42;15.95;;;5.10;;
7669;SDS011;3877;42.562;27.636;2023-05-17T11:21:13;12.50;;;5.10;;
7669;SDS011;3877;42.562;27.636;2023-05-17T11:23:41;11.40;;;4.55;;
7669;SDS011;3877;42.562;27.636;2023-05-17T11:26:11;21.95;;;5.22;;
7669;SDS011;3877;42.562;27.636;2023-05-17T11:28:40;23.90;;;6.00;;
7669;SDS011;3877;42.562;27.636;2023-05-17T11:31:07;14.40;;;5.30;;
7669;SDS011;3877;42.562;27.636;2023-05-17T11:33:41;17.80;;;5.05;;
7669;SDS011;3877;42.562;27.636;2023-05-17T11:36:14;20.15;;;4.88;;
7669;SDS011;3877;42.562;27.636;2023-05-17T11:38:43;11.32;;;4.55;;
7669;SDS011;3877;42.562;27.636;2023-05-17T11:41:17;19.42;;;5.32;;
7669;SDS011;3877;42.562;27.636;2023-05-17T11:43:44;19.60;;;5.50;;
7669;SDS011;3877;42.562;27.636;2023-05-17T11:46:16;16.93;;;5.40;;
7669;SDS011;3877;42.562;27.636;2023-05-17T11:48:44;23.00;;;6.65;;
7669;SDS011;3877;42.562;27.636;2023-05-17T11:51:14;25.20;;;6.05;;
7669;SDS011;3877;42.562;27.636;2023-05-17T11:53:40;15.13;;;5.30;;
7669;SDS011;3877;42.562;27.636;2023-05-17T11:56:08;15.70;;;5.13;;
7669;SDS011;3877;42.562;27.636;2023-05-17T11:58:36;13.38;;;4.95;;
7669;SDS011;3877;42.562;27.636;2023-05-17T12:01:02;12.15;;;5.15;;
7669;SDS011;3877;42.562;27.636;2023-05-17T12:03:30;14.30;;;5.75;;
7669;SDS011;3877;42.562;27.636;2023-05-17T12:06:03;16.30;;;5.32;;
7669;SDS011;3877;42.562;27.636;2023-05-17T12:08:32;17.95;;;5.80;;
7669;SDS011;3877;42.562;27.636;2023-05-17T12:10:59;13.95;;;5.75;;
7669;SDS011;3877;42.562;27.636;2023-05-17T12:13:26;16.17;;;5.68;;
7669;SDS011;3877;42.562;27.636;2023-05-17T12:15:53;18.57;;;6.00;;
7669;SDS011;3877;42.562;27.636;2023-05-17T12:18:21;14.40;;;5.72;;
7669;SDS011;3877;42.562;27.636;2023-05-17T12:20:55;17.03;;;6.23;;
7669;SDS011;3877;42.562;27.636;2023-05-17T12:23:26;23.65;;;6.88;;
7669;SDS011;3877;42.562;27.636;2023-05-17T12:26:02;16.20;;;5.55;;
7669;SDS011;3877;42.562;27.636;2023-05-17T12:28:28;13.38;;;5.50;;
7669;SDS011;3877;42.562;27.636;2023-05-17T12:30:55;17.35;;;5.60;;
7669;SDS011;3877;42.562;27.636;2023-05-17T12:33:26;12.35;;;4.95;;
7669;SDS011;3877;42.562;27.636;2023-05-17T12:35:53;13.18;;;5.78;;
7669;SDS011;3877;42.562;27.636;2023-05-17T12:38:20;16.55;;;6.28;;
7669;SDS011;3877;42.562;27.636;2023-05-17T12:40:47;16.00;;;5.75;;
7669;SDS011;3877;42.562;27.636;2023-05-17T12:43:15;15.70;;;5.40;;
7669;SDS011;3877;42.562;27.636;2023-05-17T12:45:42;15.10;;;5.50;;
7669;SDS011;3877;42.562;27.636;2023-05-17T12:48:09;12.45;;;5.35;;
7669;SDS011;3877;42.562;27.636;2023-05-17T12:50:36;14.90;;;5.85;;
7669;SDS011;3877;42.562;27.636;2023-05-17T12:53:06;15.93;;;5.20;;
7669;SDS011;3877;42.562;27.636;2023-05-17T12:55:35;17.38;;;5.75;;
7669;SDS011;3877;42.562;27.636;2023-05-17T12:58:02;16.60;;;5.85;;
7669;SDS011;3877;42.562;27.636;2023-05-17T13:00:30;14.63;;;5.32;;
7669;SDS011;3877;42.562;27.636;2023-05-17T13:02:57;13.95;;;4.95;;
7669;SDS011;3877;42.562;27.636;2023-05-17T13:05:24;10.35;;;4.80;;
7669;SDS011;3877;42.562;27.636;2023-05-17T13:07:51;17.08;;;5.10;;
7669;SDS011;3877;42.562;27.636;2023-05-17T13:10:22;10.32;;;5.10;;
7669;SDS011;3877;42.562;27.636;2023-05-17T13:12:53;17.35;;;4.95;;
7669;SDS011;3877;42.562;27.636;2023-05-17T13:15:21;14.23;;;5.53;;
7669;SDS011;3877;42.562;27.636;2023-05-17T13:17:53;13.68;;;5.10;;
7669;SDS011;3877;42.562;27.636;2023-05-17T13:20:20;18.38;;;6.20;;
7669;SDS011;3877;42.562;27.636;2023-05-17T13:22:47;8.70;;;4.88;;
7669;SDS011;3877;42.562;27.636;2023-05-17T13:25:14;14.98;;;5.20;;
7669;SDS011;3877;42.562;27.636;2023-05-17T13:27:41;17.60;;;5.93;;
7669;SDS011;3877;42.562;27.636;2023-05-17T13:30:11;9.20;;;4.72;;
7669;SDS011;3877;42.562;27.636;2023-05-17T13:32:38;10.30;;;4.60;;
7669;SDS011;3877;42.562;27.636;2023-05-17T13:35:06;11.70;;;5.00;;
7669;SDS011;3877;42.562;27.636;2023-05-17T13:37:33;11.38;;;5.15;;
7669;SDS011;3877;42.562;27.636;2023-05-17T13:40:00;14.07;;;5.05;;
7669;SDS011;3877;42.562;27.636;2023-05-17T13:42:27;8.27;;;4.45;;
7669;SDS011;3877;42.562;27.636;2023-05-17T13:44:54;13.27;;;4.88;;
7669;SDS011;3877;42.562;27.636;2023-05-17T13:47:21;11.95;;;4.85;;
7669;SDS011;3877;42.562;27.636;2023-05-17T13:49:48;18.77;;;5.50;;
7669;SDS011;3877;42.562;27.636;2023-05-17T13:52:16;18.02;;;5.40;;
7669;SDS011;3877;42.562;27.636;2023-05-17T13:54:43;16.20;;;5.25;;
7669;SDS011;3877;42.562;27.636;2023-05-17T13:57:10;21.00;;;6.03;;
7669;SDS011;3877;42.562;27.636;2023-05-17T13:59:37;11.32;;;5.43;;
7669;SDS011;3877;42.562;27.636;2023-05-17T14:02:04;13.02;;;5.10;;
7669;SDS011;3877;42.562;27.636;2023-05-17T14:04:31;11.98;;;4.85;;
7669;SDS011;3877;42.562;27.636;2023-05-17T14:06:59;16.77;;;5.32;;
7669;SDS011;3877;42.562;27.636;2023-05-17T14:09:27;10.57;;;4.75;;
7669;SDS011;3877;42.562;27.636;2023-05-17T14:11:57;12.63;;;5.20;;
7669;SDS011;3877;42.562;27.636;2023-05-17T14:14:23;10.63;;;5.60;;
7669;SDS011;3877;42.562;27.636;2023-05-17T14:16:52;12.68;;;5.47;;
7669;SDS011;3877;42.562;27.636;2023-05-17T14:19:18;13.73;;;5.73;;
7669;SDS011;3877;42.562;27.636;2023-05-17T14:21:45;16.60;;;5.70;;
7669;SDS011;3877;42.562;27.636;2023-05-17T14:24:12;9.98;;;5.60;;
7669;SDS011;3877;42.562;27.636;2023-05-17T14:26:40;15.07;;;5.53;;
7669;SDS011;3877;42.562;27.636;2023-05-17T14:29:07;12.87;;;6.13;;
7669;SDS011;3877;42.562;27.636;2023-05-17T14:31:33;19.00;;;6.20;;
7669;SDS011;3877;42.562;27.636;2023-05-17T14:34:01;17.67;;;6.40;;
7669;SDS011;3877;42.562;27.636;2023-05-17T14:36:28;13.30;;;5.90;;
7669;SDS011;3877;42.562;27.636;2023-05-17T14:38:56;19.85;;;6.07;;
7669;SDS011;3877;42.562;27.636;2023-05-17T14:41:23;14.18;;;5.88;;
7669;SDS011;3877;42.562;27.636;2023-05-17T14:43:51;12.07;;;4.70;;
7669;SDS011;3877;42.562;27.636;2023-05-17T14:46:18;12.90;;;5.35;;
7669;SDS011;3877;42.562;27.636;2023-05-17T14:48:45;12.90;;;5.53;;
7669;SDS011;3877;42.562;27.636;2023-05-17T14:51:12;17.92;;;6.30;;
7669;SDS011;3877;42.562;27.636;2023-05-17T14:53:39;15.77;;;5.72;;